Time;durP1;ratioP1;P1;durP2;ratioP2;P2;SDS_P1;SDS_P2;PMS_P1;PMS_P2;Temp;Humidity;BMP_temperature;BMP_pressure;BME280_temperature;BME280_humidity;BME280_pressure;Samples;Min_cycle;Max_cycle;Signal;HPM_P1;HPM_P2
2022/11/22 00:00:07;;;;;;;;;0.00;0.00;;;;;8.97;67.33;99799.81;4954951;28;45517;-78
2022/11/22 00:02:33;;;;;;;;;0.00;0.00;;;;;8.23;68.03;99673.00;4954744;28;45441;-75
2022/11/22 00:08:21;;;;;;;;;0.25;0.00;;;;;8.78;68.04;99784.63;4953798;28;45520;-75
2022/11/22 00:10:48;;;;;;;;;0.00;0.00;;;;;8.82;67.99;99773.44;4954780;28;45604;-76
2022/11/22 00:13:14;;;;;;;;;2.00;1.00;;;;;9.00;67.87;99804.25;4954406;28;45425;-77
2022/11/22 00:15:40;;;;;;;;;0.00;0.00;;;;;8.94;68.24;99790.22;4954685;28;45402;-77
2022/11/22 00:18:06;;;;;;;;;0.00;0.00;;;;;8.96;68.13;99782.44;4954084;28;45419;-77
2022/11/22 00:20:32;;;;;;;;;0.00;0.00;;;;;8.93;68.58;99804.09;4955156;28;45472;-78
2022/11/22 00:22:58;;;;;;;;;1.00;0.00;;;;;8.90;68.88;99792.72;4954269;28;45937;-78
2022/11/22 00:25:24;;;;;;;;;2.50;0.50;;;;;8.67;68.83;99727.91;4954322;28;45428;-77
2022/11/22 00:27:49;;;;;;;;;1.00;1.00;;;;;8.67;68.93;99748.75;4953136;28;45823;-78
2022/11/22 00:30:15;;;;;;;;;0.00;0.00;;;;;8.61;68.97;99732.09;4954536;28;45338;-78
2022/11/22 00:32:40;;;;;;;;;2.00;2.00;;;;;8.79;69.92;99774.22;4954123;28;45507;-78
2022/11/22 00:35:06;;;;;;;;;0.00;0.00;;;;;8.74;68.94;99768.91;4954719;28;45916;-77
2022/11/22 00:37:32;;;;;;;;;1.25;1.25;;;;;8.79;69.08;99752.50;4954871;28;45397;-78
2022/11/22 00:39:58;;;;;;;;;0.00;0.00;;;;;8.69;69.21;99721.03;4954435;28;45346;-78
2022/11/22 00:42:23;;;;;;;;;0.25;0.25;;;;;8.71;68.98;99716.75;4950139;28;45464;-76
2022/11/22 00:44:49;;;;;;;;;1.00;0.00;;;;;8.87;68.92;99748.34;4954202;28;45314;-76
2022/11/22 00:47:14;;;;;;;;;0.00;0.00;;;;;8.73;68.98;99727.19;4954534;28;45336;-77
2022/11/22 00:49:40;;;;;;;;;0.00;0.00;;;;;8.76;68.84;99732.50;4954397;28;45511;-78
2022/11/22 00:52:06;;;;;;;;;2.00;0.00;;;;;8.87;69.24;99761.38;4954099;28;45332;-77
2022/11/22 00:54:31;;;;;;;;;0.50;0.00;;;;;8.90;69.25;99753.66;4954273;28;46191;-77
2022/11/22 00:56:57;;;;;;;;;0.00;0.00;;;;;8.90;68.75;99744.09;4954212;28;45480;-75
2022/11/22 00:59:22;;;;;;;;;0.00;0.00;;;;;8.86;68.75;99750.09;4955115;28;45567;-75
2022/11/22 01:01:48;;;;;;;;;0.00;0.00;;;;;8.92;68.56;99747.63;4955676;28;46135;-77
2022/11/22 01:04:14;;;;;;;;;1.00;0.00;;;;;8.78;67.95;99699.56;4955510;28;45436;-75
2022/11/22 01:06:39;;;;;;;;;0.00;0.00;;;;;9.00;67.47;99741.72;4955535;28;45357;-77
2022/11/22 01:09:05;;;;;;;;;0.00;0.00;;;;;8.88;67.54;99705.84;4955949;28;45354;-77
2022/11/22 01:11:30;;;;;;;;;0.00;0.00;;;;;9.01;67.57;99740.88;4955387;28;46031;-78
2022/11/22 01:13:56;;;;;;;;;0.00;0.00;;;;;9.02;66.37;99743.53;4955438;28;45369;-77
2022/11/22 01:16:21;;;;;;;;;0.00;0.00;;;;;8.77;66.09;99708.19;4955122;28;45317;-76
2022/11/22 01:18:47;;;;;;;;;0.00;0.00;;;;;9.05;66.83;99754.03;4955658;28;45461;-75
2022/11/22 01:21:13;;;;;;;;;0.00;0.00;;;;;9.07;66.47;99777.47;4955209;28;46037;-78
2022/11/22 01:23:38;;;;;;;;;0.00;0.00;;;;;9.05;66.70;99761.84;4955195;28;45479;-76
2022/11/22 01:26:08;;;;;;;;;0.00;0.00;;;;;9.00;66.44;99757.38;4955665;28;45290;-77
2022/11/22 01:28:34;;;;;;;;;0.00;0.00;;;;;8.93;66.01;99767.63;4955460;28;45337;-79
2022/11/22 01:30:59;;;;;;;;;0.75;0.00;;;;;8.86;66.67;99751.81;4956181;28;46022;-78
2022/11/22 01:33:27;;;;;;;;;0.00;0.00;;;;;9.05;66.41;99776.56;4958179;28;45268;-78
2022/11/22 01:35:53;;;;;;;;;0.00;0.00;;;;;8.84;65.71;99725.72;4958193;28;45439;-78
2022/11/22 01:38:18;;;;;;;;;0.00;0.00;;;;;9.01;65.25;99743.47;4958294;28;45423;-78
2022/11/22 01:40:44;;;;;;;;;1.00;0.00;;;;;8.89;64.77;99718.03;4958030;28;45599;-77
2022/11/22 01:43:17;;;;;;;;;0.00;0.00;;;;;9.13;64.99;99764.59;4958024;28;45564;-77
2022/11/22 01:45:51;;;;;;;;;0.75;0.00;;;;;9.12;64.95;99768.06;4958232;28;45346;-76
2022/11/22 01:48:19;;;;;;;;;1.50;0.00;;;;;9.13;65.40;99775.03;4958120;28;45275;-78
2022/11/22 01:50:50;;;;;;;;;3.50;1.00;;;;;9.11;65.46;99784.53;4955961;28;46878;-75
2022/11/22 01:53:21;;;;;;;;;1.00;0.00;;;;;8.88;65.28;99735.38;4957347;28;45255;-79
2022/11/22 01:55:50;;;;;;;;;0.00;0.00;;;;;9.12;65.17;99795.00;4958096;28;45305;-78
2022/11/22 01:58:18;;;;;;;;;1.00;0.00;;;;;9.16;65.09;99796.81;4957898;28;45233;-78
2022/11/22 02:00:43;;;;;;;;;1.50;1.00;;;;;9.23;65.05;99794.34;4957113;28;45971;-78
2022/11/22 02:03:13;;;;;;;;;0.00;0.00;;;;;8.95;64.80;99749.41;4957685;28;45295;-78
2022/11/22 02:05:38;;;;;;;;;0.00;0.00;;;;;9.25;64.78;99801.41;4957966;28;45375;-78
2022/11/22 02:08:27;;;;;;;;;0.00;0.00;;;;;9.32;64.86;99810.22;4957942;28;45355;-78
2022/11/22 02:10:55;;;;;;;;;1.00;0.00;;;;;9.29;65.54;99810.13;4957486;28;46110;-78
2022/11/22 02:13:22;;;;;;;;;0.00;0.00;;;;;9.31;65.41;99811.97;4957295;28;45447;-78
2022/11/22 02:15:50;;;;;;;;;0.00;0.00;;;;;9.30;65.22;99831.03;4956365;28;45743;-78
2022/11/22 02:18:16;;;;;;;;;0.00;0.00;;;;;9.30;64.78;99818.00;4957651;28;45499;-79
2022/11/22 02:20:42;;;;;;;;;0.00;0.00;;;;;9.27;65.45;99806.63;4957418;28;45274;-75
2022/11/22 02:23:33;;;;;;;;;0.00;0.00;;;;;9.33;65.68;99828.50;4957793;28;45480;-79
2022/11/22 02:26:00;;;;;;;;;0.00;0.00;;;;;9.34;65.14;99824.16;4957125;28;45447;-78
2022/11/22 02:28:29;;;;;;;;;0.67;0.00;;;;;9.28;65.13;99811.00;4957522;28;45465;-76
2022/11/22 02:30:54;;;;;;;;;0.00;0.00;;;;;9.32;64.82;99818.91;4957287;28;46048;-76
2022/11/22 02:33:20;;;;;;;;;1.33;0.00;;;;;9.35;64.77;99820.69;4957398;28;45356;-75
2022/11/22 02:35:46;;;;;;;;;0.00;0.00;;;;;9.35;64.32;99819.00;4957506;28;45499;-75
2022/11/22 02:38:24;;;;;;;;;0.00;0.00;;;;;9.39;63.85;99813.84;4957980;28;45499;-75
2022/11/22 02:41:01;;;;;;;;;1.75;0.00;;;;;9.39;63.80;99793.88;4956879;28;46093;-75
2022/11/22 02:43:31;;;;;;;;;0.00;0.00;;;;;9.34;63.32;99791.16;4957251;28;45506;-79
2022/11/22 02:46:05;;;;;;;;;0.00;0.00;;;;;9.31;63.44;99780.69;4957344;28;45497;-79
2022/11/22 02:48:31;;;;;;;;;0.00;0.00;;;;;9.29;63.41;99777.16;4957490;28;45370;-79
2022/11/22 02:50:57;;;;;;;;;1.00;0.00;;;;;9.26;62.55;99776.19;4957086;28;46321;-79
2022/11/22 02:53:23;;;;;;;;;0.00;0.00;;;;;9.10;62.51;99759.34;4957255;28;46076;-79
2022/11/22 02:55:49;;;;;;;;;0.00;0.00;;;;;9.33;62.51;99810.25;4957332;28;45420;-78
2022/11/22 02:58:14;;;;;;;;;0.00;0.00;;;;;9.12;62.68;99763.72;4957504;28;45356;-74
2022/11/22 03:00:40;;;;;;;;;0.00;0.00;;;;;9.29;62.21;99774.56;4957094;28;45591;-78
2022/11/22 03:03:05;;;;;;;;;0.00;0.00;;;;;9.41;62.46;99791.28;4957475;28;45496;-78
2022/11/22 03:05:31;;;;;;;;;0.00;0.00;;;;;9.45;62.60;99795.72;4956982;28;45480;-78
2022/11/22 03:07:56;;;;;;;;;0.00;0.00;;;;;9.43;62.84;99780.06;4957087;28;46110;-78
2022/11/22 03:10:22;;;;;;;;;0.67;0.00;;;;;9.46;62.22;99787.94;4956885;28;45389;-78
2022/11/22 03:12:47;;;;;;;;;0.00;0.00;;;;;9.56;60.85;99774.25;4956971;28;45337;-78
2022/11/22 03:15:13;;;;;;;;;0.67;0.00;;;;;9.54;61.42;99785.50;4957387;28;45424;-78
2022/11/22 03:17:39;;;;;;;;;0.00;0.00;;;;;9.51;61.49;99793.25;4957305;28;45721;-78
2022/11/22 03:20:05;;;;;;;;;0.00;0.00;;;;;9.44;61.63;99775.72;4956523;28;46043;-78
2022/11/22 03:22:30;;;;;;;;;0.00;0.00;;;;;9.40;61.25;99792.16;4956817;28;45449;-79
2022/11/22 03:24:56;;;;;;;;;0.00;0.00;;;;;9.59;61.65;99809.97;4956885;28;45495;-79
2022/11/22 03:27:21;;;;;;;;;0.00;0.00;;;;;9.58;61.14;99800.38;4957132;28;45285;-78
2022/11/22 03:29:47;;;;;;;;;0.00;0.00;;;;;9.50;60.80;99791.50;4956662;28;45306;-76
2022/11/22 03:32:12;;;;;;;;;0.00;0.00;;;;;9.45;61.12;99782.69;4957044;28;45421;-79
2022/11/22 03:34:38;;;;;;;;;0.00;0.00;;;;;9.63;61.18;99801.38;4956836;28;46245;-79
2022/11/22 03:37:04;;;;;;;;;0.00;0.00;;;;;9.65;60.75;99810.09;4957106;28;45390;-78
2022/11/22 03:39:29;;;;;;;;;1.00;0.00;;;;;9.66;61.01;99803.16;4956530;28;45422;-79
2022/11/22 03:41:55;;;;;;;;;0.00;0.00;;;;;9.66;60.61;99793.59;4956464;28;45448;-76
2022/11/22 03:44:21;;;;;;;;;0.00;0.00;;;;;9.48;60.57;99777.56;4956645;28;45419;-78
2022/11/22 03:46:47;;;;;;;;;1.00;0.67;;;;;9.64;60.45;99791.81;4957088;28;45394;-78
2022/11/22 03:49:13;;;;;;;;;0.00;0.00;;;;;9.64;60.64;99787.47;4956462;28;45344;-77
2022/11/22 03:51:38;;;;;;;;;0.00;0.00;;;;;9.42;60.27;99752.22;4956368;28;45586;-77
2022/11/22 03:54:04;;;;;;;;;0.00;0.00;;;;;9.65;60.12;99780.50;4955593;28;45184;-78
2022/11/22 03:56:30;;;;;;;;;0.00;0.00;;;;;9.60;59.86;99767.38;4956844;28;45224;-79
2022/11/22 03:58:55;;;;;;;;;0.00;0.00;;;;;9.49;59.87;99751.53;4956161;28;46027;-77
2022/11/22 04:01:21;;;;;;;;;0.00;0.00;;;;;9.50;59.45;99774.13;4956634;28;45310;-78
2022/11/22 04:03:46;;;;;;;;;0.00;0.00;;;;;9.46;59.36;99797.50;4956849;28;45479;-78
2022/11/22 04:06:12;;;;;;;;;0.00;0.00;;;;;8.61;59.13;99685.25;4957888;28;45223;-78
2022/11/22 04:08:37;;;;;;;;;0.67;0.00;;;;;9.25;59.94;99777.03;4956451;28;45460;-79
2022/11/22 04:11:02;;;;;;;;;0.00;0.00;;;;;9.45;59.75;99804.44;4956678;28;45445;-79
2022/11/22 04:16:29;;;;;;;;;3.00;3.00;;;;;9.51;59.20;99798.47;4915432;28;45553;-78
2022/11/22 04:18:54;;;;;;;;;0.00;0.00;;;;;9.54;59.00;99801.16;4947163;28;46021;-78
2022/11/22 04:21:35;;;;;;;;;0.00;0.00;;;;;9.59;58.93;99806.47;4956366;28;45487;-76
2022/11/22 04:26:51;;;;;;;;;1.00;0.00;;;;;9.67;58.61;99799.69;4956380;28;45314;-77
2022/11/22 04:29:18;;;;;;;;;1.00;0.00;;;;;9.66;58.40;99809.25;4955933;28;45885;-73
2022/11/22 04:34:29;;;;;;;;;0.00;0.00;;;;;9.42;57.89;99777.44;4956021;28;45398;-76
2022/11/22 04:36:54;;;;;;;;;0.00;0.00;;;;;9.50;58.41;99802.81;4956189;28;45471;-75
2022/11/22 04:39:20;;;;;;;;;0.00;0.00;;;;;9.67;57.81;99826.66;4955824;28;45998;-74
2022/11/22 04:41:45;;;;;;;;;0.00;0.00;;;;;9.66;56.97;99827.50;4956296;28;45500;-77
2022/11/22 04:46:55;;;;;;;;;1.00;0.00;;;;;9.61;57.72;99816.09;4956476;28;45367;-77
2022/11/22 04:49:20;;;;;;;;;1.00;0.00;;;;;9.75;57.42;99829.44;4955598;28;45461;-77
2022/11/22 04:54:30;;;;;;;;;0.00;0.00;;;;;9.58;56.49;99802.97;4956477;28;45464;-79
2022/11/22 04:56:56;;;;;;;;;0.00;0.00;;;;;9.68;56.53;99822.31;4956234;28;45270;-78
2022/11/22 04:59:21;;;;;;;;;0.00;0.00;;;;;9.74;56.90;99822.44;4955649;28;46142;-77
2022/11/22 05:01:46;;;;;;;;;0.00;0.00;;;;;9.75;56.57;99830.31;4955816;28;45422;-78
2022/11/22 05:04:12;;;;;;;;;0.33;0.00;;;;;9.48;56.18;99774.94;4955541;28;45628;-77
2022/11/22 05:06:38;;;;;;;;;0.00;0.00;;;;;9.78;56.30;99803.41;4956185;28;45285;-78
2022/11/22 05:09:04;;;;;;;;;1.00;0.00;;;;;9.74;55.95;99805.06;4955452;28;45945;-77
2022/11/22 05:11:29;;;;;;;;;0.00;0.00;;;;;9.78;56.31;99802.53;4955650;28;45186;-77
2022/11/22 05:13:55;;;;;;;;;0.00;0.00;;;;;9.77;56.33;99806.88;4955569;28;45298;-78
2022/11/22 05:16:20;;;;;;;;;0.00;0.00;;;;;9.81;56.44;99813.03;4957776;28;45487;-79
2022/11/22 05:18:57;;;;;;;;;0.00;0.00;;;;;9.82;56.09;99820.00;4953937;28;46701;-76
2022/11/22 05:21:25;;;;;;;;;0.00;0.00;;;;;9.83;56.62;99812.22;4955542;28;45555;-75
2022/11/22 05:23:54;;;;;;;;;0.00;0.00;;;;;9.81;56.27;99811.31;4955802;28;45463;-78
2022/11/22 05:26:29;;;;;;;;;0.00;0.00;;;;;9.82;56.44;99815.66;4955813;28;45245;-78
2022/11/22 05:28:57;;;;;;;;;0.00;0.00;;;;;9.86;55.82;99833.16;4955008;28;45479;-75
2022/11/22 05:31:24;;;;;;;;;1.00;0.00;;;;;9.86;56.11;99835.75;4953877;28;45713;-74
2022/11/22 05:33:51;;;;;;;;;1.00;0.00;;;;;9.87;56.60;99814.06;4954119;28;45609;-77
2022/11/22 05:36:18;;;;;;;;;0.00;0.00;;;;;9.90;58.26;99818.44;4955859;28;45260;-77
2022/11/22 05:38:43;;;;;;;;;2.25;1.00;;;;;9.61;57.78;99761.34;4954864;28;46073;-77
2022/11/22 05:41:11;;;;;;;;;0.00;0.00;;;;;9.85;58.44;99787.06;4955310;28;45771;-77
2022/11/22 05:43:38;;;;;;;;;1.75;1.00;;;;;9.92;58.68;99804.56;4955397;28;45231;-77
2022/11/22 05:46:30;;;;;;;;;8.50;6.50;;;;;9.91;58.17;99804.56;4955066;28;45408;-77
2022/11/22 05:48:57;;;;;;;;;27.50;21.50;;;;;9.91;57.68;99805.44;4956799;28;46218;-76
2022/11/22 05:51:25;;;;;;;;;7.00;6.00;;;;;9.86;57.48;99796.63;4955064;28;45377;-77
2022/11/22 05:53:51;;;;;;;;;3.50;3.00;;;;;9.85;57.66;99800.09;4955135;28;45389;-77
2022/11/22 05:56:20;;;;;;;;;12.75;9.75;;;;;9.84;58.02;99813.97;4954880;28;45469;-77
2022/11/22 05:58:46;;;;;;;;;35.75;23.50;;;;;9.84;57.48;99805.28;4954778;28;46350;-77
2022/11/22 06:01:15;;;;;;;;;17.00;14.75;;;;;9.59;57.98;99750.00;4954894;28;45248;-78
2022/11/22 06:03:40;;;;;;;;;17.00;15.00;;;;;9.89;57.72;99793.22;4954669;28;45508;-78
2022/11/22 06:06:06;;;;;;;;;34.00;27.00;;;;;9.85;57.82;99788.78;4954698;28;45394;-77
2022/11/22 06:08:34;;;;;;;;;15.00;11.00;;;;;9.81;57.68;99771.28;4954513;28;45408;-78
2022/11/22 06:11:07;;;;;;;;;17.25;16.50;;;;;9.80;57.39;99777.38;4954251;28;45283;-78
2022/11/22 06:13:37;;;;;;;;;9.00;8.00;;;;;9.63;57.95;99751.81;4954647;28;45362;-78
2022/11/22 06:16:04;;;;;;;;;3.25;3.25;;;;;9.80;57.79;99774.75;4954884;28;45464;-76
2022/11/22 06:18:31;;;;;;;;;4.75;4.75;;;;;9.49;57.33;99741.09;4957444;28;46212;-77
2022/11/22 06:21:01;;;;;;;;;5.00;5.00;;;;;9.66;56.53;99761.44;4957568;28;45336;-76
2022/11/22 06:23:27;;;;;;;;;13.00;13.00;;;;;9.62;56.98;99783.94;4957563;28;45184;-76
2022/11/22 06:25:57;;;;;;;;;4.50;3.75;;;;;9.49;57.16;99784.50;4958216;28;45508;-78
2022/11/22 06:28:22;;;;;;;;;7.50;6.25;;;;;9.41;56.84;99783.47;4957373;28;45457;-78
2022/11/22 06:30:48;;;;;;;;;3.00;2.00;;;;;9.32;56.40;99765.91;4957157;28;45499;-76
2022/11/22 06:33:13;;;;;;;;;2.67;1.00;;;;;9.22;56.57;99771.78;4957362;28;45274;-73
2022/11/22 06:35:39;;;;;;;;;0.67;0.33;;;;;9.19;56.87;99776.91;4957582;28;45294;-76
2022/11/22 06:38:04;;;;;;;;;2.00;1.33;;;;;9.15;56.75;99778.53;4954144;28;45406;-76
2022/11/22 06:40:30;;;;;;;;;1.00;0.00;;;;;9.16;56.42;99789.00;4955693;28;45437;-77
2022/11/22 06:42:56;;;;;;;;;0.67;0.00;;;;;9.27;56.06;99804.91;4955934;28;45441;-74
2022/11/22 06:45:21;;;;;;;;;0.25;0.25;;;;;9.34;56.39;99788.56;4956596;28;45508;-76
2022/11/22 06:47:47;;;;;;;;;4.00;2.00;;;;;9.22;55.85;99764.81;4955566;28;45478;-74
2022/11/22 06:50:12;;;;;;;;;4.25;4.25;;;;;9.47;55.46;99807.97;4955563;28;45422;-78
2022/11/22 06:52:38;;;;;;;;;1.00;1.00;;;;;9.50;54.86;99812.38;4955875;28;45361;-77
2022/11/22 06:55:04;;;;;;;;;5.00;4.25;;;;;9.20;55.77;99760.44;4955768;28;45362;-77
2022/11/22 06:57:30;;;;;;;;;4.00;3.25;;;;;9.47;55.85;99800.16;4955848;28;46622;-78
2022/11/22 06:59:56;;;;;;;;;0.00;0.00;;;;;9.42;54.87;99782.63;4957372;28;45331;-75
2022/11/22 07:02:21;;;;;;;;;5.00;2.75;;;;;9.63;54.76;99814.41;4955991;28;45457;-77
2022/11/22 07:04:47;;;;;;;;;5.00;5.00;;;;;9.52;54.18;99784.59;4955674;28;45326;-77
2022/11/22 07:07:13;;;;;;;;;4.00;3.25;;;;;9.73;54.84;99826.81;4952663;28;46010;-77
2022/11/22 07:09:38;;;;;;;;;5.25;5.00;;;;;9.78;54.72;99829.50;4956092;28;45459;-75
2022/11/22 07:12:04;;;;;;;;;8.00;5.00;;;;;9.81;54.86;99833.88;4955542;28;45520;-75
2022/11/22 07:14:30;;;;;;;;;5.75;3.00;;;;;9.85;54.55;99830.53;4955378;28;45441;-76
2022/11/22 07:16:56;;;;;;;;;4.00;4.00;;;;;9.90;54.78;99836.72;4956297;28;45599;-76
2022/11/22 07:19:21;;;;;;;;;2.00;2.00;;;;;9.88;54.32;99844.50;4954967;28;45560;-74
2022/11/22 07:21:48;;;;;;;;;8.50;7.25;;;;;9.94;54.56;99849.84;4956163;28;45464;-77
2022/11/22 07:24:14;;;;;;;;;3.00;3.00;;;;;9.96;54.69;99847.28;4953588;28;45615;-75
2022/11/22 07:26:39;;;;;;;;;1.25;1.00;;;;;10.00;55.04;99836.03;4955521;28;46137;-75
2022/11/22 07:29:05;;;;;;;;;6.50;5.00;;;;;9.74;54.82;99778.97;4955542;28;45434;-74
2022/11/22 07:31:31;;;;;;;;;3.75;2.25;;;;;9.99;54.62;99816.03;4955839;28;45281;-75
2022/11/22 07:33:57;;;;;;;;;3.00;2.00;;;;;10.02;54.83;99823.03;4956235;28;45515;-74
2022/11/22 07:36:23;;;;;;;;;5.25;3.50;;;;;10.02;54.61;99821.31;4954589;28;47016;-71
2022/11/22 07:38:49;;;;;;;;;2.00;1.67;;;;;10.04;55.06;99817.00;4955754;28;45546;-73
2022/11/22 07:41:16;;;;;;;;;2.33;2.33;;;;;10.04;55.46;99811.78;4955508;28;45525;-76
2022/11/22 07:43:42;;;;;;;;;2.00;1.00;;;;;9.93;55.16;99797.66;4955933;28;45294;-79
2022/11/22 07:46:22;;;;;;;;;4.00;3.50;;;;;10.09;54.85;99817.97;4955735;28;45249;-76
2022/11/22 07:48:48;;;;;;;;;1.00;1.00;;;;;10.08;55.09;99818.81;4955672;28;45418;-77
2022/11/22 07:51:14;;;;;;;;;0.67;0.67;;;;;10.14;54.56;99818.94;4954083;28;45511;-75
2022/11/22 07:53:40;;;;;;;;;0.67;0.00;;;;;9.89;54.72;99777.56;4956204;28;45421;-74
2022/11/22 07:56:06;;;;;;;;;1.00;1.00;;;;;10.15;54.58;99806.78;4955435;28;46202;-77
2022/11/22 07:58:33;;;;;;;;;0.00;0.00;;;;;9.90;54.38;99755.84;4956063;28;45341;-77
2022/11/22 08:01:13;;;;;;;;;0.00;0.00;;;;;10.17;53.46;99810.31;4955533;28;45402;-76
2022/11/22 08:03:39;;;;;;;;;0.33;0.00;;;;;10.18;53.87;99795.53;4955868;28;45361;-76
2022/11/22 08:06:07;;;;;;;;;1.00;0.00;;;;;10.25;54.46;99798.28;4955057;28;45599;-75
2022/11/22 08:08:33;;;;;;;;;1.00;0.00;;;;;10.31;53.25;99815.81;4955065;28;45657;-75
2022/11/22 08:10:59;;;;;;;;;0.00;0.00;;;;;10.33;53.69;99811.53;4955240;28;45717;-74
2022/11/22 08:13:25;;;;;;;;;1.00;1.00;;;;;10.37;53.92;99808.13;4956276;28;45326;-75
2022/11/22 08:15:51;;;;;;;;;0.00;0.00;;;;;10.45;53.61;99814.34;4955859;28;45428;-74
2022/11/22 08:18:16;;;;;;;;;0.00;0.00;;;;;10.50;53.31;99822.25;4955313;28;45317;-77
2022/11/22 08:20:42;;;;;;;;;5.50;4.75;;;;;10.55;52.78;99813.66;4955564;28;45405;-77
2022/11/22 08:23:07;;;;;;;;;1.00;1.00;;;;;10.65;53.12;99809.50;4955459;28;45482;-77
2022/11/22 08:25:33;;;;;;;;;0.00;0.00;;;;;10.76;53.62;99804.44;4953631;28;46185;-74
2022/11/22 08:27:59;;;;;;;;;1.00;1.00;;;;;10.85;53.02;99801.13;4954887;28;45428;-76
2022/11/22 08:30:24;;;;;;;;;1.00;0.00;;;;;10.88;52.52;99804.69;4951784;28;45418;-77
2022/11/22 08:32:53;;;;;;;;;0.00;0.00;;;;;10.79;52.00;99783.59;4955148;28;45177;-76
2022/11/22 08:35:19;;;;;;;;;0.00;0.00;;;;;10.80;51.86;99800.16;4951867;28;45968;-77
2022/11/22 08:37:44;;;;;;;;;1.67;1.00;;;;;10.86;52.11;99821.16;4954950;28;45347;-76
2022/11/22 08:40:10;;;;;;;;;1.00;0.00;;;;;10.81;51.86;99808.03;4954393;28;45764;-76
2022/11/22 08:42:36;;;;;;;;;0.00;0.00;;;;;10.90;51.67;99816.03;4955213;28;45336;-76
2022/11/22 08:45:02;;;;;;;;;0.00;0.00;;;;;11.05;51.29;99831.06;4954574;28;45582;-76
2022/11/22 08:47:27;;;;;;;;;0.67;0.00;;;;;11.23;51.73;99837.47;4954987;28;45432;-77
2022/11/22 08:49:53;;;;;;;;;0.00;0.00;;;;;11.20;51.81;99803.41;4954735;28;45604;-78
2022/11/22 08:52:18;;;;;;;;;0.00;0.00;;;;;11.53;51.51;99831.81;4954434;28;45622;-74
2022/11/22 08:54:44;;;;;;;;;1.00;0.00;;;;;11.63;50.55;99841.53;4954360;28;46561;-77
2022/11/22 08:57:09;;;;;;;;;2.00;1.00;;;;;11.74;50.88;99846.94;4955746;28;45283;-78
2022/11/22 08:59:35;;;;;;;;;1.00;0.00;;;;;11.81;50.97;99850.53;4954799;28;45237;-76
2022/11/22 09:02:00;;;;;;;;;1.00;0.00;;;;;11.71;50.15;99833.81;4955335;28;45571;-74
2022/11/22 09:04:26;;;;;;;;;0.00;0.00;;;;;11.87;50.20;99843.63;4955385;28;45432;-77
2022/11/22 09:06:51;;;;;;;;;1.67;1.33;;;;;11.89;50.20;99817.50;4954211;28;45291;-77
2022/11/22 09:09:17;;;;;;;;;1.00;1.00;;;;;12.09;50.21;99841.31;4955418;28;45451;-77
2022/11/22 09:11:42;;;;;;;;;4.33;4.00;;;;;12.07;50.24;99829.94;4955526;28;45496;-77
2022/11/22 09:14:08;;;;;;;;;3.00;2.33;;;;;11.97;50.36;99807.13;4955230;28;45579;-77
2022/11/22 09:16:33;;;;;;;;;0.00;0.00;;;;;12.13;50.58;99846.59;4955035;28;45449;-77
2022/11/22 09:18:59;;;;;;;;;0.00;0.00;;;;;12.20;49.95;99846.72;4955424;28;45509;-76
2022/11/22 09:21:25;;;;;;;;;1.00;0.00;;;;;12.16;50.28;99843.16;4955540;28;45548;-77
2022/11/22 09:23:52;;;;;;;;;2.00;1.00;;;;;12.04;49.92;99819.47;4955155;28;46195;-77
2022/11/22 09:26:23;;;;;;;;;2.67;2.67;;;;;12.05;50.52;99839.53;4955264;28;45331;-77
2022/11/22 09:28:49;;;;;;;;;1.00;0.67;;;;;11.86;50.73;99828.78;4955160;28;45502;-77
2022/11/22 09:31:17;;;;;;;;;1.00;0.00;;;;;11.96;50.75;99850.78;4955179;28;45376;-77
2022/11/22 09:33:44;;;;;;;;;0.00;0.00;;;;;11.94;51.12;99855.09;4954931;28;45352;-75
2022/11/22 09:36:12;;;;;;;;;0.00;0.00;;;;;11.81;51.45;99833.06;4955106;28;45418;-78
2022/11/22 09:38:39;;;;;;;;;2.67;2.67;;;;;11.92;50.89;99838.50;4955016;28;45567;-75
2022/11/22 09:41:16;;;;;;;;;6.00;6.00;;;;;11.89;51.29;99834.09;4955086;28;45318;-77
2022/11/22 09:43:47;;;;;;;;;1.00;1.00;;;;;11.86;51.00;99831.41;4954368;28;45414;-75
2022/11/22 09:46:27;;;;;;;;;6.00;5.67;;;;;11.85;51.01;99834.00;4954937;28;45947;-76
2022/11/22 09:49:21;;;;;;;;;3.00;3.00;;;;;11.82;51.86;99826.13;4955065;28;45429;-78
2022/11/22 09:51:58;;;;;;;;;2.33;2.00;;;;;11.88;51.94;99828.81;4955887;28;45414;-74
2022/11/22 09:54:30;;;;;;;;;2.00;1.67;;;;;11.68;51.82;99789.31;4957722;28;46131;-78
2022/11/22 09:57:01;;;;;;;;;1.00;1.00;;;;;11.78;51.45;99798.13;4957781;28;45432;-78
2022/11/22 09:59:34;;;;;;;;;2.33;2.33;;;;;11.92;51.27;99826.28;4957841;28;45314;-77
2022/11/22 10:02:05;;;;;;;;;2.00;2.00;;;;;11.91;51.96;99834.97;4958225;28;45592;-77
2022/11/22 10:04:36;;;;;;;;;7.33;7.00;;;;;11.98;51.78;99820.25;4957931;28;45487;-77
2022/11/22 10:07:13;;;;;;;;;5.50;5.00;;;;;12.03;51.72;99818.56;4957814;28;45199;-76
2022/11/22 10:10:02;;;;;;;;;6.33;5.33;;;;;12.06;51.90;99829.09;4957620;28;45744;-78
2022/11/22 10:12:50;;;;;;;;;6.00;5.00;;;;;12.06;51.08;99818.59;4957733;28;45396;-78
2022/11/22 10:15:28;;;;;;;;;1.00;1.00;;;;;12.11;52.54;99831.75;4957396;28;46118;-78
2022/11/22 10:17:58;;;;;;;;;15.25;15.25;;;;;12.08;51.43;99821.25;4957503;28;45262;-77
2022/11/22 10:20:29;;;;;;;;;1.00;1.00;;;;;12.16;50.73;99816.13;4957545;28;46236;-78
2022/11/22 10:22:57;;;;;;;;;0.33;0.33;;;;;12.21;50.53;99814.41;4957818;28;45880;-76
2022/11/22 10:25:39;;;;;;;;;2.00;2.00;;;;;12.26;50.51;99803.13;4957331;28;45745;-76
2022/11/22 10:28:16;;;;;;;;;1.67;1.00;;;;;12.31;49.97;99787.47;4957795;28;45453;-76
2022/11/22 10:31:06;;;;;;;;;1.00;1.00;;;;;12.25;50.12;99775.16;4957370;28;45325;-75
2022/11/22 10:33:51;;;;;;;;;1.67;1.00;;;;;11.79;50.21;99700.47;4957460;28;45702;-77
2022/11/22 10:36:28;;;;;;;;;2.00;1.00;;;;;12.19;50.73;99772.50;4957295;28;45342;-76
2022/11/22 10:39:09;;;;;;;;;0.00;0.00;;;;;12.20;50.97;99776.88;4957466;28;45299;-78
2022/11/22 10:41:45;;;;;;;;;3.67;3.00;;;;;12.09;50.76;99755.78;4957537;28;45153;-76
2022/11/22 10:44:26;;;;;;;;;2.00;2.00;;;;;12.20;52.35;99769.03;4957540;28;45314;-77
2022/11/22 10:47:15;;;;;;;;;0.67;0.00;;;;;12.14;52.48;99759.34;4957039;28;45494;-78
2022/11/22 10:50:05;;;;;;;;;0.00;0.00;;;;;12.22;52.92;99755.94;4956997;28;45351;-76
2022/11/22 10:52:30;;;;;;;;;1.00;1.00;;;;;12.25;52.66;99748.97;4957410;28;45269;-75
2022/11/22 10:55:12;;;;;;;;;2.00;2.00;;;;;12.29;53.32;99757.75;4957369;28;45223;-75
2022/11/22 10:57:46;;;;;;;;;0.67;0.67;;;;;12.02;52.92;99722.56;4957148;28;45255;-75
2022/11/22 11:00:12;;;;;;;;;2.00;2.00;;;;;12.21;53.14;99760.28;4957137;28;45182;-78
2022/11/22 11:02:52;;;;;;;;;4.00;3.00;;;;;12.14;53.19;99767.22;4956698;28;45565;-75
2022/11/22 11:05:23;;;;;;;;;1.67;1.00;;;;;11.95;53.54;99749.53;4957310;28;45547;-76
2022/11/22 11:07:51;;;;;;;;;2.00;2.00;;;;;11.90;53.85;99735.53;4956891;28;45512;-76
2022/11/22 11:10:21;;;;;;;;;5.00;4.67;;;;;11.88;54.86;99752.94;4955558;28;45642;-76
2022/11/22 11:12:53;;;;;;;;;2.00;1.33;;;;;11.88;54.61;99751.19;4956657;28;45514;-77
2022/11/22 11:15:30;;;;;;;;;1.00;1.00;;;;;11.88;55.07;99756.41;4957257;28;45375;-76
2022/11/22 11:18:02;;;;;;;;;3.00;3.00;;;;;11.78;54.79;99744.09;4956795;28;45954;-76
2022/11/22 11:20:34;;;;;;;;;11.25;10.00;;;;;11.62;55.01;99719.47;4956686;28;45508;-76
2022/11/22 11:22:59;;;;;;;;;5.00;3.33;;;;;11.75;55.46;99755.38;4956762;28;45487;-78
2022/11/22 11:25:32;;;;;;;;;3.00;3.00;;;;;11.79;55.26;99745.81;4956748;28;45429;-77
2022/11/22 11:28:08;;;;;;;;;12.00;5.33;;;;;11.77;55.13;99731.84;4956672;28;45949;-78
2022/11/22 11:30:41;;;;;;;;;3.00;2.00;;;;;11.84;55.05;99736.31;4956840;28;45391;-78
2022/11/22 11:33:25;;;;;;;;;2.00;2.00;;;;;11.88;54.64;99725.00;4956987;28;45358;-77
2022/11/22 11:35:54;;;;;;;;;1.00;1.00;;;;;11.97;54.60;99731.22;4957105;28;45434;-77
2022/11/22 11:38:36;;;;;;;;;2.00;1.00;;;;;11.98;54.21;99712.03;4956474;28;46029;-78
2022/11/22 11:41:31;;;;;;;;;1.00;1.00;;;;;12.01;53.95;99722.56;4956493;28;45313;-76
2022/11/22 11:44:00;;;;;;;;;1.00;1.00;;;;;11.96;54.17;99709.44;4948160;28;45247;-77
2022/11/22 11:46:27;;;;;;;;;2.00;2.00;;;;;12.01;54.10;99707.72;4956840;28;45531;-77
2022/11/22 11:49:17;;;;;;;;;5.00;4.75;;;;;12.01;54.24;99699.88;4956304;28;45292;-77
2022/11/22 11:51:45;;;;;;;;;4.33;3.33;;;;;12.05;54.42;99685.06;4951349;28;45466;-77
2022/11/22 11:54:21;;;;;;;;;4.33;3.33;;;;;12.05;54.14;99685.94;4956544;28;45261;-75
2022/11/22 11:57:04;;;;;;;;;13.67;9.33;;;;;12.14;53.57;99674.72;4956624;28;45571;-77
2022/11/22 11:59:48;;;;;;;;;5.00;4.00;;;;;12.01;53.64;99638.78;4956276;28;46118;-76
2022/11/22 12:02:22;;;;;;;;;2.00;1.00;;;;;12.19;54.10;99661.66;4955222;28;45332;-75